createdAt,value
2023-05-08T00:00:07.730Z,12.40
2023-05-08T00:01:12.077Z,13.00
2023-05-08T00:02:16.209Z,12.80
2023-05-08T00:03:21.857Z,12.70
2023-05-08T00:04:26.170Z,12.90
2023-05-08T00:05:30.208Z,12.90
2023-05-08T00:06:34.813Z,12.30
2023-05-08T00:07:39.160Z,13.00
2023-05-08T00:08:43.512Z,13.20
2023-05-08T00:09:47.590Z,13.10
2023-05-08T00:10:52.207Z,12.40
2023-05-08T00:11:56.526Z,12.30
2023-05-08T00:13:00.707Z,12.60
2023-05-08T00:14:05.216Z,12.20
2023-05-08T00:15:09.559Z,12.50
2023-05-08T00:16:14.180Z,13.30
2023-05-08T00:17:18.229Z,12.00
2023-05-08T00:18:22.580Z,12.30
2023-05-08T00:19:26.931Z,12.20
2023-05-08T00:20:31.029Z,12.10
2023-05-08T00:21:35.374Z,12.70
2023-05-08T00:22:39.708Z,12.70
2023-05-08T00:23:44.323Z,12.50
2023-05-08T00:24:48.660Z,12.00
2023-05-08T00:25:53.230Z,12.20
2023-05-08T00:26:57.067Z,13.30
2023-05-08T00:28:01.406Z,12.60
2023-05-08T00:29:06.771Z,12.60
2023-05-08T00:30:10.454Z,12.50
2023-05-08T00:31:14.690Z,12.70
2023-05-08T00:32:19.092Z,12.70
2023-05-08T00:33:24.610Z,12.60
2023-05-08T00:34:28.958Z,12.70
2023-05-08T00:35:32.800Z,12.60
2023-05-08T00:36:37.395Z,12.60
2023-05-08T00:37:41.473Z,13.00
2023-05-08T00:38:46.090Z,12.90
2023-05-08T00:39:50.437Z,12.60
2023-05-08T00:40:54.521Z,13.00
2023-05-08T00:41:59.110Z,13.00
2023-05-08T00:43:03.702Z,13.00
2023-05-08T00:44:07.540Z,13.10
2023-05-08T00:45:11.898Z,13.50
2023-05-08T00:46:16.448Z,13.20
2023-05-08T00:47:20.867Z,13.30
2023-05-08T00:48:24.896Z,13.20
2023-05-08T00:49:29.234Z,13.50
2023-05-08T00:50:33.572Z,13.40
2023-05-08T00:51:38.425Z,12.70
2023-05-08T00:52:42.523Z,14.00
2023-05-08T00:53:46.844Z,13.10
2023-05-08T00:54:50.937Z,12.70
2023-05-08T00:55:55.281Z,13.60
2023-05-08T00:56:59.657Z,13.10
2023-05-08T00:58:04.232Z,13.40
2023-05-08T00:59:08.583Z,13.70
2023-05-08T01:00:13.304Z,13.40
2023-05-08T01:01:17.701Z,13.60
2023-05-08T01:02:21.624Z,14.10
2023-05-08T01:03:27.312Z,13.60
2023-05-08T01:04:31.287Z,13.50
2023-05-08T01:05:35.635Z,13.60
2023-05-08T01:06:39.983Z,14.00
2023-05-08T01:07:44.342Z,13.80
2023-05-08T01:08:48.695Z,13.90
2023-05-08T01:09:53.283Z,13.40
2023-05-08T01:10:57.345Z,13.30
2023-05-08T01:12:01.442Z,13.60
2023-05-08T01:13:05.830Z,14.00
2023-05-08T01:14:10.382Z,14.10
2023-05-08T01:15:14.475Z,14.80
2023-05-08T01:16:18.877Z,14.00
2023-05-08T01:17:23.193Z,14.10
2023-05-08T01:18:28.029Z,14.00
2023-05-08T01:19:32.099Z,14.60
2023-05-08T01:20:36.194Z,14.40
2023-05-08T01:21:40.800Z,13.90
2023-05-08T01:22:45.150Z,14.10
2023-05-08T01:23:49.231Z,13.80
2023-05-08T01:24:53.802Z,13.70
2023-05-08T01:25:59.106Z,14.30
2023-05-08T01:26:58.226Z,15.20
2023-05-08T01:28:02.583Z,15.20
2023-05-08T01:29:06.893Z,14.30
2023-05-08T01:30:11.534Z,14.50
2023-05-08T01:31:15.578Z,14.70
2023-05-08T01:32:19.890Z,14.60
2023-05-08T01:33:24.034Z,14.10
2023-05-08T01:34:24.078Z,14.70
2023-05-08T01:35:28.412Z,14.80
2023-05-08T01:36:32.773Z,15.00
2023-05-08T01:37:37.362Z,14.50
2023-05-08T01:38:41.416Z,14.30
2023-05-08T01:39:46.015Z,15.20
2023-05-08T01:40:50.612Z,16.30
2023-05-08T01:41:54.964Z,15.40
2023-05-08T01:42:59.028Z,15.20
2023-05-08T01:44:03.113Z,15.30
2023-05-08T01:45:07.693Z,14.20
2023-05-08T01:46:12.087Z,13.40
2023-05-08T01:47:16.133Z,15.20
2023-05-08T01:48:20.732Z,13.50
2023-05-08T01:49:24.820Z,15.00
2023-05-08T01:50:29.379Z,16.00
2023-05-08T01:51:33.725Z,15.00
2023-05-08T01:52:38.047Z,14.20
2023-05-08T01:53:42.132Z,14.10
2023-05-08T01:54:46.451Z,13.70
2023-05-08T01:55:50.792Z,15.50
2023-05-08T01:56:55.128Z,15.60
2023-05-08T01:57:59.747Z,14.50
2023-05-08T01:59:04.054Z,15.50
2023-05-08T02:00:08.658Z,15.60
2023-05-08T02:01:12.816Z,14.30
2023-05-08T02:02:17.160Z,13.50
2023-05-08T02:03:21.443Z,13.90
2023-05-08T02:04:21.302Z,16.10
2023-05-08T02:05:25.920Z,16.00
2023-05-08T02:06:29.957Z,16.40
2023-05-08T02:07:34.291Z,16.00
2023-05-08T02:08:38.633Z,15.10
2023-05-08T02:09:43.231Z,15.70
2023-05-08T02:10:47.557Z,15.70
2023-05-08T02:11:51.866Z,16.70
2023-05-08T02:12:55.980Z,16.90
2023-05-08T02:14:00.289Z,16.70
2023-05-08T02:15:04.614Z,16.60
2023-05-08T02:16:09.034Z,17.40
2023-05-08T02:17:13.282Z,16.70
2023-05-08T02:18:17.614Z,17.40
2023-05-08T02:19:22.194Z,17.00
2023-05-08T02:20:26.789Z,17.80
2023-05-08T02:21:30.959Z,17.60
2023-05-08T02:22:34.938Z,16.80
2023-05-08T02:23:39.277Z,16.30
2023-05-08T02:24:43.853Z,16.80
2023-05-08T02:25:48.219Z,16.60
2023-05-08T02:26:52.525Z,15.80
2023-05-08T02:27:56.602Z,16.30
2023-05-08T02:29:01.451Z,16.90
2023-05-08T02:30:05.512Z,16.50
2023-05-08T02:31:09.864Z,15.40
2023-05-08T02:32:14.046Z,16.40
2023-05-08T02:33:18.256Z,17.80
2023-05-08T02:34:18.623Z,18.30
2023-05-08T02:35:22.975Z,17.60
2023-05-08T02:36:27.034Z,16.70
2023-05-08T02:37:31.388Z,17.90
2023-05-08T02:38:35.704Z,18.10
2023-05-08T02:39:40.029Z,17.40
2023-05-08T02:40:44.881Z,17.90
2023-05-08T02:41:48.958Z,18.10
2023-05-08T02:42:53.272Z,18.20
2023-05-08T02:43:57.631Z,18.40
2023-05-08T02:45:01.942Z,17.80
2023-05-08T02:46:06.070Z,18.40
2023-05-08T02:47:10.350Z,18.70
2023-05-08T02:48:14.685Z,18.10
2023-05-08T02:49:19.540Z,18.30
2023-05-08T02:50:23.846Z,19.00
2023-05-08T02:51:27.918Z,18.70
2023-05-08T02:52:32.006Z,18.40
2023-05-08T02:53:36.370Z,22.10
2023-05-08T02:54:40.934Z,19.60
2023-05-08T02:55:45.017Z,19.20
2023-05-08T02:56:49.342Z,19.00
2023-05-08T02:57:53.925Z,19.30
2023-05-08T02:58:58.527Z,19.40
2023-05-08T03:00:02.592Z,19.20
2023-05-08T03:01:07.002Z,19.90
2023-05-08T03:02:11.003Z,19.00
2023-05-08T03:03:15.492Z,19.40
2023-05-08T03:04:15.451Z,21.10
2023-05-08T03:05:19.780Z,19.80
2023-05-08T03:06:24.377Z,20.00
2023-05-08T03:07:28.464Z,16.90
2023-05-08T03:08:32.860Z,20.00
2023-05-08T03:09:37.150Z,19.50
2023-05-08T03:10:41.958Z,18.80
2023-05-08T03:11:46.057Z,20.50
2023-05-08T03:12:50.199Z,19.70
2023-05-08T03:13:54.708Z,20.90
2023-05-08T03:14:59.049Z,21.10
2023-05-08T03:16:03.154Z,22.10
2023-05-08T03:17:07.704Z,22.00
2023-05-08T03:18:11.792Z,21.00
2023-05-08T03:19:16.356Z,22.20
2023-05-08T03:20:20.705Z,22.30
2023-05-08T03:21:24.768Z,21.90
2023-05-08T03:22:29.374Z,22.30
2023-05-08T03:23:33.445Z,22.40
2023-05-08T03:24:37.764Z,23.70
2023-05-08T03:25:42.395Z,22.60
2023-05-08T03:26:46.449Z,22.90
2023-05-08T03:27:51.055Z,23.90
2023-05-08T03:28:55.626Z,23.30
2023-05-08T03:29:59.953Z,24.00
2023-05-08T03:31:03.803Z,24.30
2023-05-08T03:32:08.107Z,24.50
2023-05-08T03:33:12.687Z,25.20
2023-05-08T03:34:12.549Z,24.80
2023-05-08T03:35:16.889Z,25.40
2023-05-08T03:36:21.498Z,25.00
2023-05-08T03:37:25.566Z,24.10
2023-05-08T03:38:30.151Z,25.00
2023-05-08T03:39:34.478Z,25.20
2023-05-08T03:40:38.843Z,24.70
2023-05-08T03:41:43.167Z,24.60
2023-05-08T03:42:47.489Z,25.30
2023-05-08T03:43:51.565Z,24.90
2023-05-08T03:44:55.888Z,24.70
2023-05-08T03:46:00.225Z,24.90
2023-05-08T03:47:04.960Z,25.20
2023-05-08T03:48:09.233Z,24.70
2023-05-08T03:49:13.463Z,24.40
2023-05-08T03:50:18.099Z,25.40
2023-05-08T03:51:22.170Z,25.80
2023-05-08T03:52:26.481Z,24.40
2023-05-08T03:53:30.561Z,24.40
2023-05-08T03:54:34.890Z,24.80
2023-05-08T03:55:39.221Z,25.40
2023-05-08T03:56:43.821Z,24.20
2023-05-08T03:57:48.170Z,24.60
2023-05-08T03:58:52.763Z,25.00
2023-05-08T03:59:56.837Z,24.60
2023-05-08T04:01:00.906Z,24.40
2023-05-08T04:02:05.238Z,25.20
2023-05-08T04:03:09.644Z,23.30
2023-05-08T04:04:09.788Z,24.00
2023-05-08T04:05:14.350Z,24.80
2023-05-08T04:06:18.453Z,23.60
2023-05-08T04:07:22.765Z,24.20
2023-05-08T04:08:27.365Z,24.40
2023-05-08T04:09:31.967Z,24.50
2023-05-08T04:10:36.035Z,24.50
2023-05-08T04:11:40.105Z,24.70
2023-05-08T04:12:44.723Z,23.70
2023-05-08T04:13:49.080Z,24.80
2023-05-08T04:14:55.566Z,24.30
2023-05-08T04:15:57.700Z,25.00
2023-05-08T04:17:02.200Z,24.10
2023-05-08T04:18:06.165Z,24.10
2023-05-08T04:19:10.963Z,24.60
2023-05-08T04:20:15.032Z,24.80
2023-05-08T04:21:19.358Z,24.20
2023-05-08T04:22:23.428Z,23.70
2023-05-08T04:23:27.770Z,24.20
2023-05-08T04:24:32.342Z,24.40
2023-05-08T04:25:36.692Z,24.70
2023-05-08T04:26:40.770Z,24.20
2023-05-08T04:27:45.363Z,24.50
2023-05-08T04:28:49.679Z,24.50
2023-05-08T04:29:54.116Z,23.70
2023-05-08T04:30:58.114Z,24.20
2023-05-08T04:32:02.738Z,24.00
2023-05-08T04:33:06.834Z,22.50
2023-05-08T04:34:06.970Z,23.90
2023-05-08T04:35:11.785Z,23.70
2023-05-08T04:36:15.885Z,23.20
2023-05-08T04:37:19.963Z,22.40
2023-05-08T04:38:24.298Z,22.00
2023-05-08T04:39:28.882Z,21.10
2023-05-08T04:40:33.226Z,20.70
2023-05-08T04:41:37.604Z,20.10
2023-05-08T04:42:42.169Z,20.50
2023-05-08T04:43:46.491Z,20.20
2023-05-08T04:44:50.840Z,20.70
2023-05-08T04:45:54.934Z,22.30
2023-05-08T04:46:59.232Z,19.60
2023-05-08T04:48:03.677Z,20.90
2023-05-08T04:49:08.400Z,23.80
2023-05-08T04:50:12.514Z,24.40
2023-05-08T04:51:16.558Z,22.10
2023-05-08T04:52:20.910Z,19.30
2023-05-08T04:53:25.242Z,16.60
2023-05-08T04:54:29.860Z,18.50
2023-05-08T04:55:33.937Z,17.20
2023-05-08T04:56:38.577Z,17.70
2023-05-08T04:57:43.124Z,18.90
2023-05-08T04:58:47.476Z,18.50
2023-05-08T04:59:51.346Z,19.20
2023-05-08T05:00:55.666Z,17.70
2023-05-08T05:02:00.555Z,17.80
2023-05-08T05:03:04.662Z,18.10
2023-05-08T05:04:05.137Z,19.60
2023-05-08T05:05:09.103Z,19.40
2023-05-08T05:06:13.473Z,18.20
2023-05-08T05:07:17.557Z,18.50
2023-05-08T05:08:21.898Z,18.60
2023-05-08T05:09:26.514Z,18.80
2023-05-08T05:10:30.855Z,18.20
2023-05-08T05:11:34.947Z,18.50
2023-05-08T05:12:39.418Z,18.20
2023-05-08T05:13:43.905Z,19.50
2023-05-08T05:14:47.984Z,19.60
2023-05-08T05:15:52.361Z,18.80
2023-05-08T05:16:56.960Z,19.00
2023-05-08T05:18:01.612Z,17.80
2023-05-08T05:19:05.652Z,18.30
2023-05-08T05:20:10.003Z,18.60
2023-05-08T05:21:14.081Z,17.30
2023-05-08T05:22:18.694Z,17.60
2023-05-08T05:23:22.791Z,17.50
2023-05-08T05:24:27.413Z,17.10
2023-05-08T05:25:31.489Z,17.70
2023-05-08T05:26:36.902Z,17.00
2023-05-08T05:27:40.452Z,16.50
2023-05-08T05:28:44.571Z,17.50
2023-05-08T05:29:48.923Z,16.70
2023-05-08T05:30:53.285Z,17.80
2023-05-08T05:31:57.910Z,17.60
2023-05-08T05:33:02.127Z,17.20
2023-05-08T05:34:02.665Z,17.30
2023-05-08T05:35:06.796Z,17.10
2023-05-08T05:36:11.126Z,16.30
2023-05-08T05:37:15.499Z,16.40
2023-05-08T05:38:20.099Z,17.30
2023-05-08T05:39:24.443Z,16.00
2023-05-08T05:40:28.534Z,15.60
2023-05-08T05:41:32.611Z,15.20
2023-05-08T05:42:37.208Z,15.90
2023-05-08T05:43:41.290Z,15.20
2023-05-08T05:44:45.902Z,14.90
2023-05-08T05:45:49.970Z,15.50
2023-05-08T05:46:54.331Z,15.10
2023-05-08T05:47:58.942Z,15.00
2023-05-08T05:49:03.238Z,16.50
2023-05-08T05:50:07.309Z,16.80
2023-05-08T05:51:11.644Z,17.40
2023-05-08T05:52:16.236Z,17.40
2023-05-08T05:53:20.575Z,16.90
2023-05-08T05:54:24.922Z,16.30
2023-05-08T05:55:29.269Z,16.70
2023-05-08T05:56:33.592Z,16.90
2023-05-08T05:57:38.188Z,16.30
2023-05-08T05:58:42.016Z,15.70
2023-05-08T05:59:46.375Z,16.40
2023-05-08T06:00:50.729Z,15.80
2023-05-08T06:01:55.388Z,14.90
2023-05-08T06:02:59.521Z,13.80
2023-05-08T06:04:00.158Z,13.60
2023-05-08T06:05:04.153Z,13.20
2023-05-08T06:06:08.464Z,14.20
2023-05-08T06:07:12.562Z,15.00
2023-05-08T06:08:17.412Z,14.70
2023-05-08T06:09:21.486Z,13.90
2023-05-08T06:10:25.825Z,13.20
2023-05-08T06:11:29.914Z,13.20
2023-05-08T06:12:34.273Z,13.40
2023-05-08T06:13:38.609Z,12.70
2023-05-08T06:14:43.195Z,13.10
2023-05-08T06:15:47.269Z,14.90
2023-05-08T06:16:52.170Z,14.70
2023-05-08T06:17:56.550Z,13.90
2023-05-08T06:19:00.273Z,13.50
2023-05-08T06:20:04.625Z,12.50
2023-05-08T06:21:09.295Z,12.50
2023-05-08T06:22:13.567Z,12.70
2023-05-08T06:23:17.913Z,13.10
2023-05-08T06:24:22.001Z,12.90
2023-05-08T06:25:26.327Z,12.90
2023-05-08T06:26:30.910Z,13.40
2023-05-08T06:27:35.254Z,13.80
2023-05-08T06:28:39.579Z,12.90
2023-05-08T06:29:43.669Z,12.60
2023-05-08T06:30:48.327Z,12.60
2023-05-08T06:31:52.617Z,13.90
2023-05-08T06:32:56.768Z,13.70
2023-05-08T06:33:57.334Z,14.60
2023-05-08T06:35:01.413Z,13.40
2023-05-08T06:36:05.488Z,13.10
2023-05-08T06:37:10.374Z,12.50
2023-05-08T06:38:14.469Z,12.10
2023-05-08T06:39:18.748Z,11.90
2023-05-08T06:40:22.831Z,12.00
2023-05-08T06:41:27.161Z,12.60
2023-05-08T06:42:31.497Z,11.80
2023-05-08T06:43:35.835Z,11.60
2023-05-08T06:44:40.407Z,11.40
2023-05-08T06:45:44.750Z,11.80
2023-05-08T06:46:49.160Z,12.20
2023-05-08T06:47:53.734Z,13.10
2023-05-08T06:48:57.505Z,13.60
2023-05-08T06:50:01.834Z,13.10
2023-05-08T06:51:06.180Z,12.50
2023-05-08T06:52:10.782Z,11.30
2023-05-08T06:53:15.135Z,12.30
2023-05-08T06:54:19.452Z,11.30
2023-05-08T06:55:23.525Z,11.50
2023-05-08T06:56:28.411Z,11.10
2023-05-08T06:57:32.209Z,11.30
2023-05-08T06:58:36.833Z,11.90
2023-05-08T06:59:40.923Z,12.00
2023-05-08T07:00:45.249Z,12.20
2023-05-08T07:01:49.893Z,12.20
2023-05-08T07:02:53.990Z,10.90
2023-05-08T07:03:59.602Z,11.60
2023-05-08T07:05:04.288Z,12.20
2023-05-08T07:06:08.333Z,11.50
2023-05-08T07:07:12.618Z,11.90
2023-05-08T07:08:16.974Z,11.50
2023-05-08T07:09:21.065Z,11.30
2023-05-08T07:10:25.712Z,11.20
2023-05-08T07:11:29.984Z,10.50
2023-05-08T07:15:25.963Z,11.20
2023-05-08T07:16:27.145Z,11.20
2023-05-08T07:17:31.943Z,11.10
2023-05-08T07:18:35.676Z,11.80
2023-05-08T07:19:40.294Z,12.50
2023-05-08T07:20:44.350Z,12.10
2023-05-08T07:21:48.695Z,11.30
2023-05-08T07:22:53.312Z,12.70
2023-05-08T07:23:57.642Z,13.10
2023-05-08T07:25:02.387Z,13.20
2023-05-08T07:26:06.557Z,12.60
2023-05-08T07:27:10.415Z,12.70
2023-05-08T07:28:14.739Z,14.40
2023-05-08T07:29:19.359Z,13.30
2023-05-08T07:30:23.435Z,13.90
2023-05-08T07:31:27.767Z,13.20
2023-05-08T07:32:32.124Z,12.80
2023-05-08T07:33:36.684Z,12.80
2023-05-08T07:34:41.263Z,13.50
2023-05-08T07:35:45.086Z,12.70
2023-05-08T07:36:49.685Z,13.20
2023-05-08T07:37:54.028Z,13.20
2023-05-08T07:38:58.112Z,11.90
2023-05-08T07:40:02.727Z,11.90
2023-05-08T07:41:07.084Z,13.50
2023-05-08T07:42:11.381Z,13.00
2023-05-08T07:43:15.703Z,11.80
2023-05-08T07:44:19.573Z,11.90
2023-05-08T07:45:20.423Z,12.00
2023-05-08T07:46:24.515Z,11.50
2023-05-08T07:47:28.585Z,11.90
2023-05-08T07:48:32.904Z,11.80
2023-05-08T07:49:37.234Z,11.50
2023-05-08T07:50:41.840Z,11.90
2023-05-08T07:51:46.161Z,11.40
2023-05-08T07:52:50.663Z,10.80
2023-05-08T07:53:54.572Z,11.00
2023-05-08T07:54:59.397Z,10.60
2023-05-08T07:56:03.478Z,10.70
2023-05-08T07:57:07.938Z,11.00
2023-05-08T07:58:11.885Z,10.40
2023-05-08T07:59:16.228Z,11.20
2023-05-08T08:00:20.553Z,11.90
2023-05-08T08:01:25.153Z,11.90
2023-05-08T08:02:29.368Z,10.20
2023-05-08T08:03:33.762Z,9.30
2023-05-08T08:04:38.532Z,10.30
2023-05-08T08:05:42.270Z,10.50
2023-05-08T08:06:46.887Z,11.00
2023-05-08T08:07:50.989Z,10.80
2023-05-08T08:08:55.290Z,9.70
2023-05-08T08:09:59.905Z,10.20
2023-05-08T08:11:04.164Z,10.00
2023-05-08T08:12:08.572Z,9.50
2023-05-08T08:13:13.322Z,10.70
2023-05-08T08:14:17.490Z,9.40
2023-05-08T08:15:17.370Z,9.90
2023-05-08T08:16:21.750Z,10.10
2023-05-08T08:17:28.499Z,9.20
2023-05-08T08:18:30.119Z,9.20
2023-05-08T08:19:34.728Z,9.50
2023-05-08T08:20:39.065Z,9.80
2023-05-08T08:21:43.397Z,10.10
2023-05-08T08:22:47.466Z,8.80
2023-05-08T08:23:52.068Z,8.50
2023-05-08T08:24:56.663Z,9.80
2023-05-08T08:26:00.736Z,8.50
2023-05-08T08:27:05.080Z,8.40
2023-05-08T08:28:09.450Z,8.80
2023-05-08T08:29:13.912Z,9.00
2023-05-08T08:30:18.772Z,10.00
2023-05-08T08:31:22.227Z,9.00
2023-05-08T08:32:26.798Z,9.40
2023-05-08T08:33:31.125Z,9.10
2023-05-08T08:34:35.682Z,8.60
2023-05-08T08:35:39.528Z,9.00
2023-05-08T08:36:43.388Z,8.40
2023-05-08T08:37:45.296Z,7.80
2023-05-08T08:38:49.855Z,8.70
2023-05-08T08:39:53.919Z,8.90
2023-05-08T08:40:58.559Z,8.00
2023-05-08T08:42:02.602Z,9.10
2023-05-08T08:43:07.215Z,8.60
2023-05-08T08:44:11.546Z,9.60
2023-05-08T08:45:11.781Z,9.50
2023-05-08T08:46:15.817Z,9.60
2023-05-08T08:47:20.386Z,8.60
2023-05-08T08:48:24.651Z,7.70
2023-05-08T08:49:28.993Z,8.10
2023-05-08T08:50:33.068Z,8.70
2023-05-08T08:51:37.663Z,7.60
2023-05-08T08:52:42.028Z,9.00
2023-05-08T08:53:46.085Z,7.80
2023-05-08T08:54:50.694Z,7.40
2023-05-08T08:55:55.028Z,8.00
2023-05-08T08:56:59.624Z,8.10
2023-05-08T08:58:03.716Z,7.90
2023-05-08T08:59:08.043Z,7.80
2023-05-08T09:00:12.266Z,7.80
2023-05-08T09:01:16.733Z,8.00
2023-05-08T09:02:21.268Z,7.40
2023-05-08T09:03:25.237Z,7.60
2023-05-08T09:04:29.730Z,7.80
2023-05-08T09:05:34.300Z,7.60
2023-05-08T09:06:39.092Z,8.00
2023-05-08T09:07:38.717Z,8.70
2023-05-08T09:08:43.068Z,8.30
2023-05-08T09:09:47.134Z,8.50
2023-05-08T09:10:51.495Z,8.20
2023-05-08T09:11:55.553Z,8.30
2023-05-08T09:13:00.236Z,7.50
2023-05-08T09:14:04.498Z,9.30
2023-05-08T09:15:04.697Z,8.40
2023-05-08T09:16:09.201Z,8.40
2023-05-08T09:17:13.353Z,7.80
2023-05-08T09:18:17.686Z,8.40
2023-05-08T09:19:24.959Z,9.30
2023-05-08T09:20:26.359Z,8.30
2023-05-08T09:21:30.435Z,8.50
2023-05-08T09:22:34.782Z,9.50
2023-05-08T09:23:39.129Z,9.40
2023-05-08T09:24:43.753Z,8.50
2023-05-08T09:25:48.075Z,8.70
2023-05-08T09:26:52.414Z,8.30
2023-05-08T09:27:56.742Z,8.40
2023-05-08T09:29:01.333Z,7.60
2023-05-08T09:30:05.195Z,7.60
2023-05-08T09:31:09.780Z,8.10
2023-05-08T09:32:14.296Z,8.00
2023-05-08T09:33:18.184Z,7.50
2023-05-08T09:34:22.799Z,7.50
2023-05-08T09:35:26.857Z,7.40
2023-05-08T09:36:31.436Z,8.50
2023-05-08T09:37:36.041Z,7.40
2023-05-08T09:38:40.161Z,7.10
2023-05-08T09:39:44.457Z,7.00
2023-05-08T09:40:48.543Z,6.70
2023-05-08T09:41:53.146Z,6.90
2023-05-08T09:42:57.470Z,7.10
2023-05-08T09:44:01.550Z,5.60
2023-05-08T09:45:01.992Z,6.50
2023-05-08T09:46:06.128Z,7.10
2023-05-08T09:47:10.681Z,7.10
2023-05-08T09:48:15.153Z,5.70
2023-05-08T09:49:20.224Z,5.70
2023-05-08T09:50:24.232Z,6.60
2023-05-08T09:51:28.563Z,6.60
2023-05-08T09:52:32.632Z,6.40
2023-05-08T09:53:36.981Z,6.90
2023-05-08T09:54:41.311Z,5.70
2023-05-08T09:55:45.655Z,6.60
2023-05-08T09:56:49.984Z,5.80
2023-05-08T09:57:54.855Z,5.60
2023-05-08T09:58:58.924Z,6.50
2023-05-08T10:00:03.277Z,5.80
2023-05-08T10:01:07.702Z,5.90
2023-05-08T10:02:11.698Z,5.80
2023-05-08T10:03:16.333Z,6.60
2023-05-08T10:04:19.732Z,5.80
2023-05-08T10:05:25.040Z,5.40
2023-05-08T10:06:29.587Z,6.10
2023-05-08T10:07:33.905Z,6.00
2023-05-08T10:08:37.735Z,5.80
2023-05-08T10:09:50.182Z,5.60
2023-05-08T10:10:46.428Z,6.00
2023-05-08T10:11:51.022Z,6.20
2023-05-08T10:12:55.170Z,5.90
2023-05-08T10:13:59.715Z,5.70
2023-05-08T10:15:00.114Z,5.60
2023-05-08T10:16:04.204Z,6.00
2023-05-08T10:17:08.625Z,6.10
2023-05-08T10:18:13.159Z,6.30
2023-05-08T10:19:17.419Z,6.80
2023-05-08T10:20:21.913Z,6.00
2023-05-08T10:21:25.612Z,6.20
2023-05-08T10:22:30.185Z,6.40
2023-05-08T10:23:34.252Z,6.50
2023-05-08T10:24:38.588Z,6.10
2023-05-08T10:25:42.916Z,6.30
2023-05-08T10:27:02.716Z,6.20
2023-05-08T10:27:52.114Z,6.00
2023-05-08T10:28:56.219Z,6.00
2023-05-08T10:30:00.565Z,6.10
2023-05-08T10:31:04.878Z,6.10
2023-05-08T10:32:09.215Z,6.20
2023-05-08T10:33:13.532Z,6.90
2023-05-08T10:34:17.903Z,7.10
2023-05-08T10:35:21.972Z,6.30
2023-05-08T10:36:28.490Z,6.90
2023-05-08T10:37:30.900Z,5.60
2023-05-08T10:38:35.001Z,5.70
2023-05-08T10:39:39.364Z,5.90
2023-05-08T10:40:43.705Z,5.80
2023-05-08T10:41:48.030Z,5.70
2023-05-08T10:42:52.362Z,5.90
2023-05-08T10:43:56.717Z,6.10
2023-05-08T10:44:57.390Z,6.10
2023-05-08T10:46:01.221Z,5.80
2023-05-08T10:47:05.535Z,6.20
2023-05-08T10:48:10.392Z,5.90
2023-05-08T10:49:14.716Z,5.50
2023-05-08T10:50:18.838Z,5.60
2023-05-08T10:51:22.898Z,6.00
2023-05-08T10:52:27.266Z,5.60
2023-05-08T10:53:31.826Z,6.00
2023-05-08T10:54:35.932Z,5.40
2023-05-08T10:55:40.520Z,5.60
2023-05-08T10:56:45.118Z,5.90
2023-05-08T10:57:49.437Z,6.10
2023-05-08T10:58:53.268Z,6.30
2023-05-08T10:59:57.603Z,6.10
2023-05-08T11:01:01.970Z,6.30
2023-05-08T11:02:06.587Z,6.40
2023-05-08T11:03:23.592Z,6.40
2023-05-08T11:04:15.411Z,6.10
2023-05-08T11:05:19.544Z,5.50
2023-05-08T11:06:24.139Z,5.40
2023-05-08T11:07:28.231Z,5.90
2023-05-08T11:08:32.604Z,6.00
2023-05-08T11:09:36.909Z,5.40
2023-05-08T11:10:40.983Z,5.70
2023-05-08T11:11:45.593Z,5.90
2023-05-08T11:12:49.926Z,5.50
2023-05-08T11:13:54.002Z,5.50
2023-05-08T11:14:54.691Z,5.40
2023-05-08T11:15:58.800Z,5.70
2023-05-08T11:17:03.102Z,5.70
2023-05-08T11:18:07.760Z,6.20
2023-05-08T11:19:11.754Z,5.80
2023-05-08T11:20:16.005Z,5.90
2023-05-08T11:21:20.449Z,5.40
2023-05-08T11:22:24.514Z,5.70
2023-05-08T11:23:28.881Z,5.60
2023-05-08T11:24:33.229Z,5.60
2023-05-08T11:25:37.550Z,4.80
2023-05-08T11:26:42.382Z,4.50
2023-05-08T11:27:46.242Z,4.70
2023-05-08T11:28:50.574Z,5.00
2023-05-08T11:29:55.180Z,4.80
2023-05-08T11:30:59.517Z,6.90
2023-05-08T11:32:03.688Z,4.40
2023-05-08T11:33:08.279Z,5.10
2023-05-08T11:34:12.559Z,5.00
2023-05-08T11:35:17.137Z,5.00
2023-05-08T11:36:21.477Z,3.90
2023-05-08T11:37:25.302Z,4.50
2023-05-08T11:38:29.665Z,3.30
2023-05-08T11:39:34.273Z,3.80
2023-05-08T11:40:38.470Z,3.60
2023-05-08T11:41:42.690Z,3.70
2023-05-08T11:42:47.285Z,4.30
2023-05-08T11:43:52.883Z,4.00
2023-05-08T11:44:53.053Z,3.90
2023-05-08T11:45:57.386Z,3.90
2023-05-08T11:47:01.466Z,3.80
2023-05-08T11:48:05.614Z,3.80
2023-05-08T11:49:10.118Z,4.00
2023-05-08T11:50:14.731Z,4.10
2023-05-08T11:51:18.534Z,3.60
2023-05-08T11:52:22.887Z,4.00
2023-05-08T11:53:27.232Z,4.00
2023-05-08T11:54:31.970Z,3.90
2023-05-08T11:55:36.178Z,4.00
2023-05-08T11:56:40.800Z,4.20
2023-05-08T11:57:44.844Z,3.90
2023-05-08T11:58:48.928Z,3.60
2023-05-08T11:59:53.299Z,3.80
2023-05-08T12:00:57.672Z,3.80
2023-05-08T12:02:08.673Z,3.80
2023-05-08T12:03:06.819Z,3.70
2023-05-08T12:04:11.467Z,3.80
2023-05-08T12:05:15.512Z,3.90
2023-05-08T12:06:19.600Z,4.30
2023-05-08T12:07:23.949Z,3.80
2023-05-08T12:08:28.027Z,4.10
2023-05-08T12:09:32.404Z,4.00
2023-05-08T12:10:36.714Z,3.70
2023-05-08T12:11:41.319Z,4.10
2023-05-08T12:12:45.878Z,4.10
2023-05-08T12:13:50.286Z,4.20
2023-05-08T12:14:55.396Z,4.60
2023-05-08T12:15:59.503Z,4.60
2023-05-08T12:17:03.925Z,4.20
2023-05-08T12:18:08.268Z,3.90
2023-05-08T12:19:12.846Z,4.20
2023-05-08T12:20:17.394Z,4.20
2023-05-08T12:21:21.549Z,4.00
2023-05-08T12:22:26.190Z,4.20
2023-05-08T12:23:30.520Z,3.90
2023-05-08T12:24:34.645Z,4.10
2023-05-08T12:25:38.967Z,4.90
2023-05-08T12:26:43.062Z,4.20
2023-05-08T12:27:48.331Z,4.60
2023-05-08T12:28:51.984Z,4.20
2023-05-08T12:29:56.054Z,4.20
2023-05-08T12:31:00.942Z,4.40
2023-05-08T12:32:04.998Z,4.60
2023-05-08T12:33:09.465Z,4.40
2023-05-08T12:34:13.438Z,4.20
2023-05-08T12:35:17.801Z,4.30
2023-05-08T12:36:22.436Z,4.40
2023-05-08T12:37:26.539Z,4.40
2023-05-08T12:38:31.161Z,4.60
2023-05-08T12:39:35.785Z,4.20
2023-05-08T12:40:39.886Z,4.10
2023-05-08T12:41:43.976Z,4.10
2023-05-08T12:42:48.343Z,4.50
2023-05-08T12:43:52.814Z,4.60
2023-05-08T12:44:58.315Z,4.80
2023-05-08T12:46:02.679Z,4.20
2023-05-08T12:47:06.718Z,5.10
2023-05-08T12:48:11.390Z,5.00
2023-05-08T12:49:15.652Z,6.60
2023-05-08T12:50:19.985Z,4.60
2023-05-08T12:51:24.069Z,5.90
2023-05-08T12:52:28.646Z,4.60
2023-05-08T12:53:32.773Z,4.30
2023-05-08T12:54:37.397Z,5.50
2023-05-08T12:55:41.688Z,4.70
2023-05-08T12:56:46.008Z,5.00
2023-05-08T12:57:50.607Z,4.10
2023-05-08T12:58:55.071Z,4.60
2023-05-08T13:00:00.926Z,4.80
2023-05-08T13:01:03.433Z,5.70
2023-05-08T13:02:07.543Z,4.80
2023-05-08T13:03:12.026Z,4.20
2023-05-08T13:04:16.536Z,4.10
2023-05-08T13:05:20.810Z,3.90
2023-05-08T13:06:25.155Z,4.20
2023-05-08T13:07:29.758Z,4.20
2023-05-08T13:08:33.874Z,4.50
2023-05-08T13:09:37.918Z,4.80
2023-05-08T13:10:42.256Z,3.70
2023-05-08T13:11:46.590Z,4.20
2023-05-08T13:12:50.993Z,3.60
2023-05-08T13:13:55.256Z,3.40
2023-05-08T13:15:01.109Z,3.80
2023-05-08T13:16:05.562Z,3.50
2023-05-08T13:17:09.531Z,3.80
2023-05-08T13:18:13.890Z,3.90
2023-05-08T13:19:17.933Z,4.80
2023-05-08T13:20:22.261Z,3.80
2023-05-08T13:21:27.959Z,4.30
2023-05-08T13:22:30.916Z,4.20
2023-05-08T13:23:35.249Z,4.20
2023-05-08T13:27:24.543Z,6.30
2023-05-08T13:28:29.661Z,4.00
2023-05-08T13:29:34.265Z,3.30
2023-05-08T13:30:38.530Z,4.20
2023-05-08T13:31:42.972Z,4.90
2023-05-08T13:32:47.308Z,3.80
2023-05-08T13:33:51.378Z,6.00
2023-05-08T13:34:58.840Z,4.50
2023-05-08T13:36:00.337Z,3.80
2023-05-08T13:37:04.672Z,4.20
2023-05-08T13:38:09.033Z,3.60
2023-05-08T13:39:13.089Z,4.10
2023-05-08T13:40:17.728Z,4.40
2023-05-08T13:41:22.045Z,4.30
2023-05-08T13:42:26.376Z,4.30
2023-05-08T13:43:30.438Z,4.20
2023-05-08T13:44:34.798Z,4.30
2023-05-08T13:45:39.427Z,4.40
2023-05-08T13:46:43.587Z,4.60
2023-05-08T13:47:47.839Z,4.00
2023-05-08T13:48:52.141Z,4.10
2023-05-08T13:49:57.000Z,3.80
2023-05-08T13:51:01.081Z,3.60
2023-05-08T13:52:05.454Z,3.90
2023-05-08T13:53:09.519Z,3.50
2023-05-08T13:54:14.138Z,4.00
2023-05-08T13:55:18.471Z,4.00
2023-05-08T13:56:22.535Z,4.50
2023-05-08T13:57:22.672Z,4.40
2023-05-08T13:58:27.224Z,4.30
2023-05-08T13:59:31.575Z,4.50
2023-05-08T14:00:35.652Z,4.00
2023-05-08T14:01:40.539Z,3.70
2023-05-08T14:02:45.269Z,5.20
2023-05-08T14:03:49.159Z,3.00